Terminal Aerodrome Forecast
Issued by NWS

Home | Current Version | Previous Version | Text Only | Print | Product List | Glossary On
Versions: 1 2 3 4 5 6 7 8 9 10 11 12 13 14 15 16
000
FTUS41 KBGM 281700
TAFELM
TAF
KELM 281733Z 2818/0118 VRB03KT P6SM SCT250
     FM010700 VRB03KT P6SM OVC100
     FM010900 VRB03KT P6SM OVC040
      TEMPO 0111/0115 2SM -SN BR OVC025
     FM011500 20006KT 2SM -SN OVC015=

USA.gov is the U.S. government's official web portal to all federal, state and local government web resources and services.